Time;durP1;ratioP1;P1;durP2;ratioP2;P2;SDS_P1;SDS_P2;PMS_P1;PMS_P2;Temp;Humidity;BMP_temperature;BMP_pressure;BME280_temperature;BME280_humidity;BME280_pressure;Samples;Min_cycle;Max_cycle;Signal;HPM_P1;HPM_P2
2023/01/23 00:01:49;;;;;;;17.23;9.13;;;2.50;99.90;;;;;;5081556;28;20055;-84
2023/01/23 00:04:15;;;;;;;20.42;10.27;;;2.60;99.90;;;;;;5091587;28;20079;-82
2023/01/23 00:06:41;;;;;;;20.80;10.55;;;2.60;99.90;;;;;;5089823;28;20062;-82
2023/01/23 00:09:07;;;;;;;24.25;10.18;;;2.50;99.90;;;;;;5085762;28;20040;-81
2023/01/23 00:11:33;;;;;;;24.73;11.07;;;2.60;99.90;;;;;;5095418;28;20032;-84
2023/01/23 00:14:00;;;;;;;22.23;11.68;;;2.50;99.90;;;;;;5058375;28;20043;-82
2023/01/23 00:16:29;;;;;;;22.35;11.45;;;2.50;99.90;;;;;;5073098;28;20032;-82
2023/01/23 00:18:55;;;;;;;20.40;10.98;;;2.60;99.90;;;;;;5069742;28;20081;-82
2023/01/23 00:21:24;;;;;;;23.95;10.98;;;2.60;99.90;;;;;;5078853;28;20044;-84
2023/01/23 00:23:52;;;;;;;23.00;11.68;;;2.60;99.90;;;;;;5086988;28;20109;-81
2023/01/23 00:26:22;;;;;;;22.17;10.93;;;2.60;99.90;;;;;;5083424;28;20128;-87
2023/01/23 00:28:48;;;;;;;20.75;11.43;;;2.60;99.90;;;;;;5090853;28;20043;-81
2023/01/23 00:31:34;;;;;;;23.25;11.95;;;2.50;99.90;;;;;;5076481;28;20052;-81
2023/01/23 00:34:03;;;;;;;22.77;12.25;;;2.60;99.90;;;;;;5085964;28;20500;-83
2023/01/23 00:36:32;;;;;;;20.40;11.35;;;2.60;99.90;;;;;;5087858;28;20044;-82
2023/01/23 00:38:58;;;;;;;25.83;12.07;;;2.50;99.90;;;;;;5088923;28;20389;-82
2023/01/23 00:41:24;;;;;;;20.45;10.43;;;2.60;99.90;;;;;;5095434;28;20044;-83
2023/01/23 00:43:51;;;;;;;28.73;11.43;;;2.60;99.90;;;;;;5071111;28;20052;-82
2023/01/23 00:46:18;;;;;;;22.27;11.50;;;2.60;99.90;;;;;;5077041;28;20066;-82
2023/01/23 00:48:43;;;;;;;23.13;10.80;;;2.60;99.90;;;;;;5074829;28;20854;-82
2023/01/23 00:51:09;;;;;;;29.40;12.85;;;2.70;99.90;;;;;;5056393;28;20053;-83
2023/01/23 00:53:34;;;;;;;24.65;12.38;;;2.60;99.90;;;;;;5098293;28;20496;-85
2023/01/23 00:56:00;;;;;;;21.33;11.60;;;2.60;99.90;;;;;;5065133;28;20131;-83
2023/01/23 00:58:26;;;;;;;22.85;10.32;;;2.60;99.90;;;;;;5049216;28;20040;-82
2023/01/23 01:00:51;;;;;;;22.58;11.40;;;2.60;99.90;;;;;;5061365;28;20048;-81
2023/01/23 01:03:19;;;;;;;18.95;11.30;;;2.60;99.90;;;;;;5086599;28;20048;-81
2023/01/23 01:05:45;;;;;;;22.75;10.68;;;2.60;99.90;;;;;;5053994;28;20114;-82
2023/01/23 01:08:11;;;;;;;22.85;12.07;;;2.60;99.90;;;;;;5079064;28;20119;-82
2023/01/23 01:10:39;;;;;;;25.90;12.45;;;2.60;99.90;;;;;;5056237;28;20116;-82
2023/01/23 01:13:05;;;;;;;29.50;13.70;;;2.60;99.90;;;;;;5069288;28;20047;-82
2023/01/23 01:15:31;;;;;;;28.05;13.10;;;2.60;99.90;;;;;;5077555;28;20047;-81
2023/01/23 01:17:58;;;;;;;23.90;12.30;;;2.60;99.90;;;;;;5060558;28;20134;-81
2023/01/23 01:20:25;;;;;;;29.35;11.60;;;2.60;99.90;;;;;;5059677;28;20052;-81
2023/01/23 01:22:55;;;;;;;21.77;10.48;;;2.60;99.90;;;;;;5083036;28;20078;-82
2023/01/23 01:25:21;;;;;;;20.10;11.13;;;2.60;99.90;;;;;;5082006;28;20090;-81
2023/01/23 01:27:47;;;;;;;20.13;11.02;;;2.60;99.90;;;;;;5072425;28;20137;-81
2023/01/23 01:30:13;;;;;;;21.35;10.73;;;2.60;99.90;;;;;;5085467;28;20042;-83
2023/01/23 01:32:40;;;;;;;22.00;10.75;;;2.60;99.90;;;;;;5071014;28;20040;-82
2023/01/23 01:35:07;;;;;;;24.30;11.20;;;2.60;99.90;;;;;;5054636;28;20098;-86
2023/01/23 01:37:34;;;;;;;24.23;10.95;;;2.60;99.90;;;;;;5082499;28;20036;-82
2023/01/23 01:40:00;;;;;;;20.80;10.45;;;2.60;99.90;;;;;;5079005;28;20397;-82
2023/01/23 01:42:27;;;;;;;24.80;11.05;;;2.60;99.90;;;;;;5084857;28;20040;-81
2023/01/23 01:44:55;;;;;;;25.05;10.77;;;2.50;99.90;;;;;;5083289;28;20482;-89
2023/01/23 01:47:22;;;;;;;21.35;10.50;;;2.50;99.90;;;;;;5079896;28;20048;-83
2023/01/23 01:49:48;;;;;;;21.88;10.95;;;2.60;99.90;;;;;;5084973;28;20107;-81
2023/01/23 01:52:15;;;;;;;21.05;10.82;;;2.50;99.90;;;;;;5081435;28;20048;-82
2023/01/23 01:54:54;;;;;;;21.98;11.18;;;2.50;99.90;;;;;;5045641;28;20052;-82
2023/01/23 01:57:32;;;;;;;23.65;10.95;;;2.50;99.90;;;;;;5080081;28;20043;-82
2023/01/23 02:00:10;;;;;;;20.42;10.60;;;2.50;99.90;;;;;;5057062;28;20044;-82
2023/01/23 02:02:50;;;;;;;22.00;11.00;;;2.50;99.90;;;;;;5062951;28;20091;-82
2023/01/23 02:05:21;;;;;;;22.25;10.75;;;2.50;99.90;;;;;;5067092;28;20075;-81
2023/01/23 02:07:53;;;;;;;29.42;11.38;;;2.50;99.90;;;;;;5065993;28;20035;-82
2023/01/23 02:10:20;;;;;;;24.17;10.90;;;2.50;99.90;;;;;;5054192;28;20509;-84
2023/01/23 02:12:48;;;;;;;26.33;11.88;;;2.50;99.90;;;;;;5064738;28;20125;-81
2023/01/23 02:15:14;;;;;;;26.55;11.68;;;2.50;99.90;;;;;;5065832;28;20493;-82
2023/01/23 02:17:42;;;;;;;21.30;10.80;;;2.50;99.90;;;;;;5065369;28;20083;-83
2023/01/23 02:20:27;;;;;;;24.55;10.75;;;2.60;99.90;;;;;;5069183;28;20052;-82
2023/01/23 02:23:20;;;;;;;26.17;11.68;;;2.60;99.90;;;;;;5064879;28;20367;-82
2023/01/23 02:25:52;;;;;;;22.80;11.30;;;2.60;99.90;;;;;;5074000;28;20044;-81
2023/01/23 02:28:17;;;;;;;28.55;12.13;;;2.60;99.90;;;;;;5057239;28;20040;-81
2023/01/23 02:30:45;;;;;;;22.40;11.27;;;2.60;99.90;;;;;;5064702;28;20085;-81
2023/01/23 02:33:31;;;;;;;21.25;11.82;;;2.70;99.90;;;;;;5030320;28;20131;-81
2023/01/23 02:35:58;;;;;;;25.70;12.00;;;2.60;99.90;;;;;;5061279;28;20051;-81
2023/01/23 02:38:31;;;;;;;23.67;12.27;;;2.60;99.90;;;;;;5039639;28;20313;-86
2023/01/23 02:41:01;;;;;;;24.38;12.32;;;2.50;99.90;;;;;;5071663;28;20671;-81
2023/01/23 02:43:40;;;;;;;23.58;12.35;;;2.60;99.90;;;;;;5070550;28;20048;-81
2023/01/23 02:46:09;;;;;;;23.33;12.98;;;2.60;99.90;;;;;;5056157;28;20044;-82
2023/01/23 02:48:36;;;;;;;26.33;12.65;;;2.60;99.90;;;;;;5067616;28;20041;-81
2023/01/23 02:51:02;;;;;;;29.05;12.63;;;2.60;99.90;;;;;;5040575;28;20056;-81
2023/01/23 02:53:29;;;;;;;24.05;11.52;;;2.60;99.90;;;;;;5054631;28;20098;-84
2023/01/23 02:55:55;;;;;;;28.38;12.57;;;2.60;99.90;;;;;;5058256;28;20052;-82
2023/01/23 03:01:05;;;;;;;26.45;12.18;;;2.60;99.90;;;;;;5053117;28;20149;-82
2023/01/23 03:03:31;;;;;;;20.92;12.13;;;2.60;99.90;;;;;;5049391;28;20051;-81
2023/01/23 03:05:58;;;;;;;25.83;12.43;;;2.50;99.90;;;;;;5052616;28;20052;-82
2023/01/23 03:08:32;;;;;;;26.83;13.55;;;2.50;99.90;;;;;;5060721;28;20149;-81
2023/01/23 03:10:58;;;;;;;24.00;12.20;;;2.50;99.90;;;;;;5065428;28;20082;-81
2023/01/23 03:13:24;;;;;;;27.45;12.82;;;2.70;99.90;;;;;;5055170;28;20052;-82
2023/01/23 03:15:51;;;;;;;21.55;12.38;;;2.50;99.90;;;;;;5054183;28;20044;-81
2023/01/23 03:18:18;;;;;;;22.67;12.05;;;2.60;99.90;;;;;;5055238;28;20052;-81
2023/01/23 03:20:44;;;;;;;22.20;12.77;;;2.60;99.90;;;;;;5039869;28;20052;-88
2023/01/23 03:23:10;;;;;;;23.55;13.25;;;2.50;99.90;;;;;;5054970;28;20093;-82
2023/01/23 03:25:35;;;;;;;29.10;12.63;;;2.50;99.90;;;;;;5031344;28;20124;-82
2023/01/23 03:28:01;;;;;;;24.60;13.20;;;2.50;99.90;;;;;;5063293;28;20512;-82
2023/01/23 03:30:27;;;;;;;22.17;12.63;;;2.50;99.90;;;;;;5067353;28;20182;-80
2023/01/23 03:32:53;;;;;;;25.63;12.38;;;2.50;99.90;;;;;;5045364;28;20127;-82
2023/01/23 03:35:19;;;;;;;25.20;12.82;;;2.50;99.90;;;;;;5037466;28;20048;-83
2023/01/23 03:37:48;;;;;;;28.02;12.90;;;2.50;99.90;;;;;;5063692;28;20077;-87
2023/01/23 03:43:04;;;;;;;22.25;12.63;;;2.50;99.90;;;;;;5066694;28;20066;-81
2023/01/23 03:45:30;;;;;;;27.33;13.68;;;2.60;99.90;;;;;;5060962;28;20044;-86
2023/01/23 03:47:56;;;;;;;28.77;12.70;;;2.50;99.90;;;;;;5062173;28;20045;-81
2023/01/23 03:50:21;;;;;;;24.98;13.10;;;2.50;99.90;;;;;;5063343;28;20047;-84
2023/01/23 03:52:47;;;;;;;26.45;12.95;;;2.70;99.90;;;;;;5033338;28;20065;-86
2023/01/23 03:55:13;;;;;;;24.67;12.98;;;2.50;99.90;;;;;;5045797;28;20477;-81
2023/01/23 03:57:38;;;;;;;25.33;12.75;;;2.50;99.90;;;;;;5065214;28;20052;-82
2023/01/23 04:00:05;;;;;;;22.48;12.57;;;2.50;99.90;;;;;;5039563;28;20552;-82
2023/01/23 04:02:31;;;;;;;25.70;12.68;;;2.50;99.90;;;;;;5068335;28;20083;-81
2023/01/23 04:04:57;;;;;;;26.58;12.57;;;2.60;99.90;;;;;;5061540;28;20048;-81
2023/01/23 04:07:23;;;;;;;24.73;13.02;;;2.50;99.90;;;;;;5049596;28;20791;-81
2023/01/23 04:09:48;;;;;;;26.90;13.38;;;2.50;99.90;;;;;;5073002;28;20143;-81
2023/01/23 04:12:14;;;;;;;26.35;14.13;;;2.50;99.90;;;;;;5064099;28;20079;-83
2023/01/23 04:14:40;;;;;;;26.70;14.20;;;2.50;99.90;;;;;;5055239;28;20044;-81
2023/01/23 04:17:07;;;;;;;26.20;12.95;;;2.50;99.90;;;;;;5042255;28;20044;-81
2023/01/23 04:19:33;;;;;;;27.90;13.07;;;2.50;99.90;;;;;;5057544;28;20060;-81
2023/01/23 04:21:59;;;;;;;29.23;14.23;;;2.50;99.90;;;;;;5072636;28;20574;-83
2023/01/23 04:24:26;;;;;;;28.63;13.63;;;2.50;99.90;;;;;;5049470;28;20083;-81
2023/01/23 04:26:52;;;;;;;26.05;13.63;;;2.50;99.90;;;;;;5056189;28;20094;-86
2023/01/23 04:29:18;;;;;;;29.52;13.25;;;2.50;99.90;;;;;;5054639;28;20044;-81
2023/01/23 04:31:44;;;;;;;28.48;13.38;;;2.50;99.90;;;;;;5063768;28;20140;-81
2023/01/23 04:34:10;;;;;;;28.10;13.77;;;2.50;99.90;;;;;;5058490;28;20119;-82
2023/01/23 04:36:36;;;;;;;28.42;13.52;;;2.50;99.90;;;;;;5039445;28;20130;-81
2023/01/23 04:39:03;;;;;;;29.60;13.98;;;2.60;99.90;;;;;;5058597;28;20048;-80
2023/01/23 04:41:30;;;;;;;32.55;14.35;;;2.50;99.90;;;;;;5060565;28;20094;-81
2023/01/23 04:44:18;;;;;;;25.67;13.45;;;2.50;99.90;;;;;;5064835;28;20052;-86
2023/01/23 04:46:42;;;;;;;28.75;13.35;;;2.50;99.90;;;;;;5061984;28;20059;-81
2023/01/23 04:49:08;;;;;;;26.65;13.60;;;2.50;99.90;;;;;;5078884;28;20037;-82
2023/01/23 04:51:34;;;;;;;29.10;14.45;;;2.50;99.90;;;;;;5042284;28;20055;-81
2023/01/23 04:53:59;;;;;;;23.60;13.55;;;2.50;99.90;;;;;;5074512;28;20048;-86
2023/01/23 04:56:25;;;;;;;27.70;14.65;;;2.60;99.90;;;;;;5048473;28;20094;-81
2023/01/23 04:58:52;;;;;;;30.00;13.77;;;2.50;99.90;;;;;;5058159;28;20162;-81
2023/01/23 05:01:21;;;;;;;27.33;14.27;;;2.50;99.90;;;;;;5046545;28;20600;-84
2023/01/23 05:03:51;;;;;;;28.42;14.02;;;2.50;99.90;;;;;;5046277;28;20055;-81
2023/01/23 05:06:18;;;;;;;26.05;14.40;;;2.50;99.90;;;;;;5082877;28;20040;-83
2023/01/23 05:08:44;;;;;;;28.00;14.15;;;2.40;99.90;;;;;;5033705;28;20048;-81
2023/01/23 05:11:11;;;;;;;25.08;14.25;;;2.40;99.90;;;;;;5067824;28;20043;-81
2023/01/23 05:13:37;;;;;;;32.92;14.38;;;2.50;99.90;;;;;;5054975;28;20425;-80
2023/01/23 05:16:03;;;;;;;26.10;13.40;;;2.50;99.90;;;;;;5057477;28;20079;-81
2023/01/23 05:18:28;;;;;;;30.25;15.35;;;2.40;99.90;;;;;;5067922;28;20088;-85
2023/01/23 05:20:54;;;;;;;24.92;14.02;;;2.50;99.90;;;;;;5047710;28;20044;-81
2023/01/23 05:23:20;;;;;;;28.35;13.55;;;2.40;99.90;;;;;;5063058;28;20036;-83
2023/01/23 05:25:46;;;;;;;26.58;13.95;;;2.40;99.90;;;;;;5052035;28;20060;-85
2023/01/23 05:28:11;;;;;;;28.55;14.90;;;2.40;99.90;;;;;;5052592;28;20063;-82
2023/01/23 05:30:37;;;;;;;29.23;14.50;;;2.40;99.90;;;;;;5050861;28;20040;-80
2023/01/23 05:33:03;;;;;;;24.80;13.93;;;2.60;99.90;;;;;;5043368;28;20048;-88
2023/01/23 05:35:29;;;;;;;25.38;12.88;;;2.40;99.90;;;;;;5040525;28;20451;-83
2023/01/23 05:37:54;;;;;;;25.65;13.88;;;2.40;99.90;;;;;;5072868;28;20050;-80
2023/01/23 05:40:20;;;;;;;29.60;13.45;;;2.40;99.90;;;;;;5039910;28;20481;-81
2023/01/23 05:42:47;;;;;;;28.15;14.23;;;2.60;99.90;;;;;;5060163;28;20048;-80
2023/01/23 05:45:13;;;;;;;28.98;12.43;;;2.50;99.90;;;;;;5046357;28;20050;-84
2023/01/23 05:47:39;;;;;;;27.65;13.57;;;2.40;99.90;;;;;;5072397;28;20801;-80
2023/01/23 05:50:06;;;;;;;27.35;14.35;;;2.40;99.90;;;;;;5067756;28;20564;-86
2023/01/23 05:52:33;;;;;;;27.48;14.68;;;2.40;99.90;;;;;;5056108;28;20552;-80
2023/01/23 05:54:59;;;;;;;25.02;13.93;;;2.40;99.90;;;;;;5048400;28;20131;-84
2023/01/23 05:57:24;;;;;;;25.40;13.63;;;2.40;99.90;;;;;;5041134;28;20135;-81
2023/01/23 05:59:50;;;;;;;27.83;13.63;;;2.40;99.90;;;;;;5070131;28;21077;-81
2023/01/23 06:02:16;;;;;;;27.67;13.18;;;2.40;99.90;;;;;;5040213;28;20048;-80
2023/01/23 06:04:41;;;;;;;24.25;13.40;;;2.40;99.90;;;;;;5047595;28;20055;-81
2023/01/23 06:07:13;;;;;;;27.52;14.27;;;2.30;99.90;;;;;;5055852;28;20170;-88
2023/01/23 06:09:39;;;;;;;30.70;14.15;;;2.40;99.90;;;;;;5075062;28;20033;-83
2023/01/23 06:12:05;;;;;;;29.77;15.45;;;2.40;99.90;;;;;;5065498;28;20074;-81
2023/01/23 06:14:30;;;;;;;27.10;13.98;;;2.40;99.90;;;;;;5060262;28;20097;-81
2023/01/23 06:16:56;;;;;;;30.20;14.43;;;2.40;99.90;;;;;;5031650;28;20055;-81
2023/01/23 06:19:21;;;;;;;24.55;13.38;;;2.30;99.90;;;;;;5057545;28;20060;-81
2023/01/23 06:21:47;;;;;;;25.45;13.80;;;2.40;99.90;;;;;;5051238;28;20052;-82
2023/01/23 06:24:13;;;;;;;29.50;14.63;;;2.30;99.90;;;;;;5067260;28;20040;-82
2023/01/23 06:26:38;;;;;;;31.30;14.68;;;2.30;99.90;;;;;;5044862;28;20505;-85
2023/01/23 06:29:04;;;;;;;29.02;14.30;;;2.30;99.90;;;;;;5050005;28;20393;-83
2023/01/23 06:31:31;;;;;;;30.83;13.68;;;2.30;99.90;;;;;;5043804;28;20714;-82
2023/01/23 06:33:58;;;;;;;23.77;13.18;;;2.30;99.90;;;;;;5050135;28;20044;-85
2023/01/23 06:36:24;;;;;;;29.55;14.30;;;2.50;99.90;;;;;;5049463;28;20054;-84
2023/01/23 06:38:49;;;;;;;27.92;14.32;;;2.30;99.90;;;;;;5059748;28;20127;-84
2023/01/23 06:41:15;;;;;;;28.35;13.45;;;2.30;99.90;;;;;;5071545;28;20044;-84
2023/01/23 06:43:41;;;;;;;27.58;14.13;;;2.30;99.90;;;;;;5045690;28;20044;-82
2023/01/23 06:46:10;;;;;;;27.63;12.82;;;2.30;99.90;;;;;;5068033;28;20044;-84
2023/01/23 06:48:37;;;;;;;24.92;14.40;;;2.30;99.90;;;;;;5053787;28;20049;-88
2023/01/23 06:51:04;;;;;;;28.08;13.93;;;2.30;99.90;;;;;;5050654;28;20131;-83
2023/01/23 06:53:30;;;;;;;28.88;13.73;;;2.30;99.90;;;;;;5046114;28;20058;-83
2023/01/23 06:56:05;;;;;;;29.63;13.68;;;2.30;99.90;;;;;;5067120;28;20049;-83
2023/01/23 06:58:32;;;;;;;27.52;13.85;;;2.30;99.90;;;;;;5037109;28;20048;-82
2023/01/23 07:00:58;;;;;;;30.35;14.32;;;2.30;99.90;;;;;;5051569;28;20052;-82
2023/01/23 07:03:23;;;;;;;28.60;13.95;;;2.40;99.90;;;;;;5064444;28;20047;-82
2023/01/23 07:05:49;;;;;;;28.33;13.68;;;2.30;99.90;;;;;;5032457;28;20048;-83
2023/01/23 07:08:15;;;;;;;25.67;13.10;;;2.30;99.90;;;;;;5020554;28;20084;-87
2023/01/23 07:10:41;;;;;;;32.83;13.90;;;2.30;99.90;;;;;;5037354;28;20036;-83
2023/01/23 07:13:09;;;;;;;28.23;13.98;;;2.30;99.90;;;;;;5053670;28;20036;-83
2023/01/23 07:15:35;;;;;;;26.48;13.80;;;2.40;99.90;;;;;;5055267;28;20312;-82
2023/01/23 07:18:02;;;;;;;28.05;13.88;;;2.30;99.90;;;;;;5037024;28;20552;-83
2023/01/23 07:20:28;;;;;;;25.05;13.65;;;2.30;99.90;;;;;;5072382;28;20052;-82
2023/01/23 07:22:54;;;;;;;29.52;13.90;;;2.30;99.90;;;;;;5068189;28;20418;-83
2023/01/23 07:25:21;;;;;;;27.05;13.95;;;2.30;99.90;;;;;;5062952;28;20052;-83
2023/01/23 07:27:47;;;;;;;24.60;13.73;;;2.40;99.90;;;;;;5043514;28;20115;-83
2023/01/23 07:30:14;;;;;;;26.05;14.05;;;2.30;99.90;;;;;;5070839;28;20039;-85
2023/01/23 07:32:40;;;;;;;24.88;12.65;;;2.30;99.90;;;;;;5047773;28;20597;-83
2023/01/23 07:35:06;;;;;;;25.08;13.10;;;2.30;99.90;;;;;;5040552;28;20136;-82
2023/01/23 07:37:32;;;;;;;24.92;13.10;;;2.30;99.90;;;;;;5040816;28;20178;-83
2023/01/23 07:39:58;;;;;;;23.17;12.90;;;2.30;99.90;;;;;;5044873;28;20135;-83
2023/01/23 07:42:23;;;;;;;25.17;12.80;;;2.40;99.90;;;;;;5048771;28;20442;-84
2023/01/23 07:44:49;;;;;;;24.13;13.05;;;2.30;99.90;;;;;;5070004;28;20067;-84
2023/01/23 07:47:15;;;;;;;23.60;12.98;;;2.30;99.90;;;;;;5060109;28;20044;-83
2023/01/23 07:49:40;;;;;;;25.02;12.73;;;2.30;99.90;;;;;;5069875;28;20509;-82
2023/01/23 07:52:06;;;;;;;24.50;12.77;;;2.40;99.90;;;;;;5051674;28;20393;-83
2023/01/23 07:54:32;;;;;;;23.95;12.05;;;2.40;99.90;;;;;;5026437;28;20048;-82
2023/01/23 07:56:58;;;;;;;25.20;12.15;;;2.40;99.90;;;;;;5057902;28;20135;-83
2023/01/23 07:59:23;;;;;;;23.35;13.00;;;2.40;99.90;;;;;;5073280;28;20211;-83
2023/01/23 08:01:51;;;;;;;21.98;12.18;;;2.50;99.90;;;;;;5050762;28;20048;-84
2023/01/23 08:04:20;;;;;;;25.95;12.82;;;2.40;99.90;;;;;;5069772;28;20950;-82
2023/01/23 08:06:45;;;;;;;26.05;12.60;;;2.40;99.90;;;;;;5059623;28;20131;-83
2023/01/23 08:09:11;;;;;;;26.10;13.73;;;2.40;99.90;;;;;;5041371;28;20127;-83
2023/01/23 08:11:38;;;;;;;34.28;12.52;;;2.50;99.90;;;;;;5047628;28;20068;-83
2023/01/23 08:14:03;;;;;;;21.13;12.70;;;2.50;99.90;;;;;;5051994;28;20052;-84
2023/01/23 08:16:29;;;;;;;21.90;11.82;;;2.50;99.90;;;;;;5050043;28;20044;-85
2023/01/23 08:18:55;;;;;;;23.80;11.77;;;2.50;99.90;;;;;;5025576;28;20052;-84
2023/01/23 08:21:21;;;;;;;27.40;13.30;;;2.50;99.90;;;;;;5057995;28;20370;-83
2023/01/23 08:23:46;;;;;;;27.27;16.13;;;2.50;99.90;;;;;;5054691;28;20048;-83
2023/01/23 08:26:14;;;;;;;26.95;12.63;;;2.60;99.90;;;;;;5039910;28;20052;-82
2023/01/23 08:28:42;;;;;;;47.03;22.67;;;2.60;99.90;;;;;;5049110;28;20041;-83
2023/01/23 08:31:09;;;;;;;43.42;19.40;;;2.70;99.90;;;;;;5055321;28;20048;-82
2023/01/23 08:33:36;;;;;;;104.25;48.00;;;2.60;99.90;;;;;;5074368;28;20048;-84
2023/01/23 08:36:04;;;;;;;115.40;48.67;;;2.60;99.90;;;;;;5075794;28;20086;-82
2023/01/23 08:38:30;;;;;;;61.75;28.10;;;2.70;99.90;;;;;;5074195;28;20051;-83
2023/01/23 08:40:58;;;;;;;71.90;38.40;;;2.70;99.90;;;;;;5041986;28;20075;-83
2023/01/23 08:43:24;;;;;;;159.10;89.63;;;2.70;99.90;;;;;;5062051;28;20075;-83
2023/01/23 08:45:56;;;;;;;96.20;63.05;;;2.70;99.90;;;;;;5061820;28;20066;-89
2023/01/23 08:48:23;;;;;;;30.77;18.20;;;2.80;99.90;;;;;;5066384;28;20102;-82
2023/01/23 08:50:49;;;;;;;22.42;11.13;;;2.80;99.90;;;;;;5020478;28;20044;-84
2023/01/23 08:53:15;;;;;;;17.42;10.85;;;2.80;99.90;;;;;;5025976;28;20048;-84
2023/01/23 08:55:41;;;;;;;18.40;10.77;;;2.90;99.90;;;;;;5058081;28;20047;-83
2023/01/23 08:58:11;;;;;;;19.13;11.07;;;2.90;99.90;;;;;;5066827;28;20045;-82
2023/01/23 09:00:37;;;;;;;20.10;11.18;;;3.10;99.90;;;;;;5033467;28;20063;-81
2023/01/23 09:03:04;;;;;;;18.20;10.75;;;3.00;99.90;;;;;;5067371;28;20060;-82
2023/01/23 09:05:30;;;;;;;18.73;10.73;;;3.10;99.90;;;;;;5068369;28;20040;-86
2023/01/23 09:07:57;;;;;;;22.77;10.25;;;3.20;99.90;;;;;;5058007;28;20036;-82
2023/01/23 09:10:23;;;;;;;17.25;9.80;;;3.20;99.90;;;;;;5068304;28;20406;-81
2023/01/23 09:12:53;;;;;;;16.75;9.93;;;3.20;99.90;;;;;;5051917;28;20800;-83
2023/01/23 09:15:20;;;;;;;20.17;9.82;;;3.20;99.90;;;;;;5050889;28;20056;-82
2023/01/23 09:17:45;;;;;;;18.33;10.80;;;3.30;99.90;;;;;;5046100;28;20135;-82
2023/01/23 09:20:14;;;;;;;16.90;9.88;;;3.30;99.90;;;;;;5057266;28;20134;-81
2023/01/23 09:22:40;;;;;;;16.83;9.32;;;3.30;99.90;;;;;;5062381;28;20044;-81
2023/01/23 09:25:07;;;;;;;17.55;9.13;;;3.40;99.90;;;;;;5032984;28;20395;-81
2023/01/23 09:27:32;;;;;;;20.08;9.93;;;3.40;99.90;;;;;;5062683;28;20467;-83
2023/01/23 09:29:58;;;;;;;13.65;8.02;;;3.50;99.90;;;;;;5059645;28;20049;-81
2023/01/23 09:32:23;;;;;;;12.80;8.55;;;3.50;99.90;;;;;;5047525;28;20052;-81
2023/01/23 09:34:49;;;;;;;17.05;9.23;;;3.50;99.90;;;;;;5038911;28;20397;-82
2023/01/23 09:37:16;;;;;;;13.68;8.27;;;3.60;99.90;;;;;;5046302;28;20044;-81
2023/01/23 09:39:44;;;;;;;14.82;9.13;;;3.60;99.90;;;;;;5074262;28;20044;-82
2023/01/23 09:42:20;;;;;;;14.40;8.30;;;3.60;99.90;;;;;;5054596;28;20094;-81
2023/01/23 09:44:56;;;;;;;15.70;8.95;;;3.60;99.90;;;;;;5054634;28;20052;-81
2023/01/23 09:47:40;;;;;;;;;;;3.70;99.90;;;;;;5067244;28;20051;-81
2023/01/23 09:50:14;;;;;;;14.73;7.88;;;3.60;99.90;;;;;;5046335;28;19920;-82
2023/01/23 09:52:46;;;;;;;14.57;8.80;;;3.70;99.90;;;;;;5060528;28;20048;-82
2023/01/23 09:55:16;;;;;;;14.18;8.27;;;3.80;99.90;;;;;;5052683;28;20094;-81
2023/01/23 09:57:51;;;;;;;12.80;8.43;;;3.70;99.90;;;;;;5065122;28;20055;-80
2023/01/23 10:00:31;;;;;;;16.73;9.20;;;3.70;99.90;;;;;;5051729;28;20040;-80
2023/01/23 10:03:00;;;;;;;12.80;8.35;;;3.70;99.90;;;;;;5052588;28;20174;-79
2023/01/23 10:05:50;;;;;;;13.23;8.80;;;3.70;99.90;;;;;;5069063;28;20053;-80
2023/01/23 10:08:45;;;;;;;15.45;9.05;;;3.70;99.90;;;;;;5060326;28;20050;-80
2023/01/23 10:11:34;;;;;;;15.00;9.18;;;3.80;99.90;;;;;;5057365;28;20063;-80
2023/01/23 10:14:12;;;;;;;13.70;8.65;;;3.70;99.90;;;;;;5050730;28;20063;-80
2023/01/23 10:16:47;;;;;;;12.88;9.10;;;3.70;99.90;;;;;;5063322;28;20048;-82
2023/01/23 10:19:27;;;;;;;16.20;9.70;;;3.80;99.90;;;;;;5047641;28;20059;-80
2023/01/23 10:22:23;;;;;;;12.73;8.50;;;3.80;99.90;;;;;;5064569;28;20390;-80
2023/01/23 10:24:54;;;;;;;13.88;9.10;;;3.80;99.90;;;;;;5058565;28;20121;-80
2023/01/23 10:27:21;;;;;;;16.35;9.77;;;3.80;99.90;;;;;;5064371;28;20051;-80
2023/01/23 10:30:04;;;;;;;14.85;9.40;;;3.80;99.90;;;;;;5063588;28;20039;-82
2023/01/23 10:32:38;;;;;;;16.40;9.77;;;3.80;99.90;;;;;;5034502;28;20048;-80
2023/01/23 10:35:11;;;;;;;15.23;7.90;;;3.80;99.90;;;;;;5066952;28;20379;-80
2023/01/23 10:37:54;;;;;;;14.63;8.85;;;3.90;99.90;;;;;;5071613;28;20084;-80
2023/01/23 10:41:12;;;;;;;13.85;8.50;;;3.90;99.90;;;;;;5064076;28;20040;-80
2023/01/23 10:43:19;;;;;;;14.23;8.45;;;3.90;99.90;;;;;;5066853;28;20058;-79
2023/01/23 10:45:48;;;;;;;15.38;9.05;;;4.00;99.90;;;;;;5067229;28;20147;-81
2023/01/23 10:48:44;;;;;;;16.20;9.00;;;4.00;99.90;;;;;;5063755;28;20123;-80
2023/01/23 10:51:29;;;;;;;15.10;9.40;;;4.00;99.90;;;;;;5068028;28;20044;-81
2023/01/23 10:54:02;;;;;;;15.60;8.50;;;4.00;99.90;;;;;;5041115;28;20105;-82
2023/01/23 10:56:30;;;;;;;15.30;9.50;;;4.00;99.90;;;;;;5062114;28;20040;-80
2023/01/23 10:58:59;;;;;;;20.33;9.85;;;4.00;99.90;;;;;;5074562;28;20051;-80
2023/01/23 11:01:29;;;;;;;17.70;9.13;;;4.00;99.90;;;;;;5068419;28;20040;-81
2023/01/23 11:03:56;;;;;;;19.98;10.55;;;4.00;99.90;;;;;;5037505;28;20510;-81
2023/01/23 11:06:24;;;;;;;17.92;9.88;;;4.00;99.90;;;;;;5056453;28;20513;-80
2023/01/23 11:09:00;;;;;;;18.70;9.25;;;4.00;99.90;;;;;;5060578;28;20131;-80
2023/01/23 11:11:29;;;;;;;14.80;10.15;;;4.10;99.90;;;;;;5056389;28;20124;-80
2023/01/23 11:14:10;;;;;;;13.13;9.40;;;4.10;99.90;;;;;;5073793;28;20116;-81
2023/01/23 11:16:37;;;;;;;16.17;9.65;;;4.10;99.90;;;;;;5047314;28;20048;-81
2023/01/23 11:19:08;;;;;;;14.27;9.50;;;4.10;99.90;;;;;;5025172;28;20134;-81
2023/01/23 11:21:56;;;;;;;14.30;9.43;;;4.10;99.90;;;;;;5057997;28;20060;-81
2023/01/23 11:24:31;;;;;;;16.48;9.68;;;4.10;99.90;;;;;;5071291;28;20124;-81
2023/01/23 11:27:04;;;;;;;18.85;10.20;;;4.20;99.90;;;;;;5053659;28;20124;-80
2023/01/23 11:29:49;;;;;;;15.60;9.30;;;4.20;99.90;;;;;;5045774;28;20062;-80
2023/01/23 11:32:15;;;;;;;12.95;9.32;;;4.20;99.90;;;;;;5038224;28;20063;-80
2023/01/23 11:35:08;;;;;;;15.27;9.15;;;4.30;99.90;;;;;;5066873;28;20394;-78
2023/01/23 11:37:37;;;;;;;15.48;9.75;;;4.20;99.90;;;;;;5049182;28;20109;-80
2023/01/23 11:40:11;;;;;;;18.35;9.88;;;4.20;99.90;;;;;;5055486;28;20036;-80
2023/01/23 11:42:40;;;;;;;18.70;11.00;;;4.20;99.90;;;;;;5051017;28;20048;-81
2023/01/23 11:45:42;;;;;;;15.68;9.68;;;4.20;99.90;;;;;;5050071;28;20090;-80
2023/01/23 11:48:45;;;;;;;15.05;9.73;;;4.30;99.90;;;;;;5036999;28;20037;-80
2023/01/23 11:51:57;;;;;;;19.27;13.48;;;4.30;99.90;;;;;;5036519;28;20052;-81
2023/01/23 11:54:32;;;;;;;16.13;9.95;;;4.20;99.90;;;;;;5040748;28;20041;-80
2023/01/23 11:57:39;;;;;;;15.82;9.70;;;4.20;99.90;;;;;;5063209;28;20056;-81
2023/01/23 12:00:27;;;;;;;18.92;10.60;;;4.20;99.90;;;;;;5056690;28;20125;-80
2023/01/23 12:03:23;;;;;;;17.75;10.55;;;4.20;99.90;;;;;;5060007;28;20036;-82
2023/01/23 12:06:11;;;;;;;19.63;10.02;;;4.30;99.90;;;;;;5071684;28;20056;-80
2023/01/23 12:09:02;;;;;;;16.17;10.60;;;4.20;99.90;;;;;;5056298;28;20040;-80
2023/01/23 12:11:55;;;;;;;16.63;10.18;;;4.30;99.90;;;;;;5062263;28;20044;-80
2023/01/23 12:14:42;;;;;;;16.60;10.50;;;4.30;99.90;;;;;;4999271;28;20045;-80
2023/01/23 12:17:35;;;;;;;16.75;10.60;;;4.30;99.90;;;;;;5066275;28;20655;-80
2023/01/23 12:20:20;;;;;;;17.67;10.38;;;4.30;99.90;;;;;;5052796;28;20053;-81
2023/01/23 12:23:07;;;;;;;15.60;10.05;;;4.30;99.90;;;;;;5053677;28;20045;-81
2023/01/23 12:25:37;;;;;;;16.42;11.05;;;4.30;99.90;;;;;;5040852;28;20160;-80
2023/01/23 12:28:37;;;;;;;19.73;12.15;;;4.30;99.90;;;;;;5056012;28;20044;-80
2023/01/23 12:31:13;;;;;;;19.75;11.55;;;4.20;99.90;;;;;;5062696;28;20101;-80
2023/01/23 12:34:07;;;;;;;18.83;11.35;;;4.20;99.90;;;;;;5051355;28;20045;-80
2023/01/23 12:37:00;;;;;;;17.83;11.93;;;4.10;99.90;;;;;;5050979;28;20044;-80
2023/01/23 12:39:56;;;;;;;23.15;12.80;;;4.10;99.90;;;;;;5055745;28;20186;-80
2023/01/23 12:42:46;;;;;;;24.35;13.18;;;4.10;99.90;;;;;;5053194;28;20089;-80
2023/01/23 12:45:27;;;;;;;21.05;12.18;;;4.10;99.90;;;;;;5036391;28;20048;-80
2023/01/23 12:48:14;;;;;;;23.83;13.05;;;4.10;99.90;;;;;;5036682;28;20055;-80
2023/01/23 12:50:59;;;;;;;24.55;13.07;;;4.20;99.90;;;;;;5053387;28;20080;-81
2023/01/23 12:53:25;;;;;;;20.80;13.25;;;4.10;99.90;;;;;;5052757;28;20105;-81
2023/01/23 12:56:13;;;;;;;21.10;13.45;;;4.10;99.90;;;;;;5019421;28;20051;-82
2023/01/23 12:58:43;;;;;;;20.50;12.38;;;4.10;99.90;;;;;;5062019;28;20060;-80
2023/01/23 13:01:41;;;;;;;19.13;12.30;;;4.00;99.90;;;;;;5051743;28;20502;-81